CheckWX is a tool to help pilots better visualize weather data.  It is not intended as a substitute for an official pre-flight weather briefing.

20:34:39 UTC

ENSE METAR
Snorre A Oilp
Snorre A Oilp, Norway
Current

15 mins ago

ENSE 202020Z AUTO 24021KT 9999NDV -RA BKN061/// OVC076/// 09/08 Q1027 W///S4
Observed
Apr-20 @ 20:20 UTC
Wind
  • 240° at 21 KTS
Visibility
Conditions
Light Rain
Cloud Levels
  • Broken at 6,100' AGL
  • Overcast at 7,600' AGL
Temperature
C / 48°F
Dewpoint
C / 46°F
Humidity
94%
Altimeter
30.32" Hg
Pressure
1026.92 hPa
Previous

45 mins ago

ENSE 201950Z AUTO 24022KT 9999NDV -RA BKN066/// 09/08 Q1027 W///S3
Observed
Apr-20 @ 19:50 UTC
Wind
  • 240° at 22 KTS
Visibility
Conditions
Light Rain
Cloud Levels
  • Broken at 6,600' AGL
Temperature
C / 48°F
Dewpoint
C / 46°F
Humidity
94%
Altimeter
30.32" Hg
Pressure
1026.92 hPa
Previous

1 hour ago

ENSE 201920Z AUTO 24024KT 9999NDV -DZ OVC066/// 09/08 Q1027 W///S3
Observed
Apr-20 @ 19:20 UTC
Wind
  • 240° at 24 KTS
Visibility
Conditions
Light Drizzle
Cloud Levels
  • Overcast at 6,600' AGL
Temperature
C / 48°F
Dewpoint
C / 46°F
Humidity
94%
Altimeter
30.32" Hg
Pressure
1026.92 hPa